Time;durP1;ratioP1;P1;durP2;ratioP2;P2;SDS_P1;SDS_P2;PMS_P1;PMS_P2;Temp;Humidity;BMP_temperature;BMP_pressure;BME280_temperature;BME280_humidity;BME280_pressure;Samples;Min_cycle;Max_cycle;Signal;HPM_P1;HPM_P2
2023/01/27 00:00:24;;;;;;;11.15;6.30;;;5.40;99.90;;;;;;4968495;28;20074;-73
2023/01/27 00:02:49;;;;;;;9.10;5.20;;;5.40;99.90;;;;;;4968641;28;20053;-74
2023/01/27 00:05:16;;;;;;;7.07;5.07;;;5.30;99.90;;;;;;4968785;28;20412;-75
2023/01/27 00:07:45;;;;;;;9.85;5.60;;;5.30;99.90;;;;;;4999806;28;20047;-73
2023/01/27 00:10:16;;;;;;;9.35;5.50;;;5.30;99.90;;;;;;5000235;28;20050;-73
2023/01/27 00:15:27;;;;;;;7.00;5.82;;;5.30;99.90;;;;;;5003427;28;20057;-73
2023/01/27 00:17:53;;;;;;;4.78;3.72;;;5.30;99.90;;;;;;5002856;28;20137;-73
2023/01/27 00:25:49;;;;;;;5.25;4.28;;;5.30;99.90;;;;;;4987750;28;20047;-74
2023/01/27 00:28:22;;;;;;;11.43;4.25;;;5.20;99.90;;;;;;4982665;28;20047;-73
2023/01/27 00:30:48;;;;;;;5.60;3.70;;;5.20;99.90;;;;;;4968304;28;20530;-75
2023/01/27 00:33:23;;;;;;;6.53;3.08;;;5.20;99.90;;;;;;4970572;28;20133;-73
2023/01/27 00:35:49;;;;;;;7.78;3.67;;;5.10;99.90;;;;;;4956161;28;20057;-73
2023/01/27 00:38:14;;;;;;;4.97;4.05;;;5.10;99.90;;;;;;4984227;28;20039;-73
2023/01/27 00:41:13;;;;;;;3.60;2.90;;;5.10;99.90;;;;;;4952593;28;20058;-73
2023/01/27 00:43:25;;;;;;;6.32;2.83;;;5.10;99.90;;;;;;4950203;29;20058;-73
2023/01/27 00:45:51;;;;;;;7.85;4.85;;;5.10;99.90;;;;;;4952846;28;20051;-73
2023/01/27 00:48:17;;;;;;;3.65;2.90;;;5.00;99.90;;;;;;4984463;28;20075;-73
2023/01/27 00:50:42;;;;;;;9.85;3.92;;;5.00;99.90;;;;;;4952627;28;20047;-73
2023/01/27 00:53:08;;;;;;;4.75;3.78;;;5.00;99.90;;;;;;4952583;28;20039;-73
2023/01/27 00:55:33;;;;;;;5.88;3.63;;;5.00;99.90;;;;;;4952487;28;20079;-73
2023/01/27 00:57:59;;;;;;;8.07;5.45;;;5.00;99.90;;;;;;4957345;28;20450;-73
2023/01/27 01:00:24;;;;;;;5.13;3.30;;;5.00;99.90;;;;;;4971689;28;20046;-73
2023/01/27 01:02:50;;;;;;;4.35;3.45;;;5.00;99.90;;;;;;4971944;28;20074;-74
2023/01/27 01:05:15;;;;;;;5.50;3.70;;;5.00;99.90;;;;;;4972409;28;20039;-73
2023/01/27 01:07:41;;;;;;;8.20;4.63;;;5.00;99.90;;;;;;4971461;28;20058;-73
2023/01/27 01:10:07;;;;;;;5.70;4.07;;;5.00;99.90;;;;;;4970711;28;20047;-73
2023/01/27 01:12:33;;;;;;;6.35;3.55;;;5.00;99.90;;;;;;4970634;28;20070;-73
2023/01/27 01:14:58;;;;;;;4.70;3.78;;;5.00;99.90;;;;;;4971802;28;20489;-73
2023/01/27 01:17:24;;;;;;;5.38;3.40;;;4.90;99.90;;;;;;4990749;28;20054;-73
2023/01/27 01:19:49;;;;;;;9.55;3.20;;;5.00;99.90;;;;;;4989680;28;20050;-75
2023/01/27 01:22:24;;;;;;;7.32;3.63;;;5.00;99.90;;;;;;4990066;28;20046;-73
2023/01/27 01:24:50;;;;;;;8.32;3.22;;;4.90;99.90;;;;;;4956665;28;20051;-75
2023/01/27 01:27:16;;;;;;;6.55;3.80;;;4.90;99.90;;;;;;4970323;28;20530;-73
2023/01/27 01:29:41;;;;;;;5.03;2.78;;;4.90;99.90;;;;;;4970633;28;20399;-73
2023/01/27 01:32:08;;;;;;;4.82;4.30;;;4.90;99.90;;;;;;4970269;28;20124;-73
2023/01/27 01:34:35;;;;;;;4.00;2.65;;;4.90;99.90;;;;;;4970985;28;20050;-73
2023/01/27 01:37:01;;;;;;;6.32;2.53;;;4.90;99.90;;;;;;4971250;28;20043;-73
2023/01/27 01:39:26;;;;;;;6.15;3.78;;;4.90;99.90;;;;;;4970565;28;20039;-74
2023/01/27 01:41:52;;;;;;;6.20;3.38;;;4.90;99.90;;;;;;4969911;28;20050;-74
2023/01/27 01:44:23;;;;;;;4.45;3.25;;;4.90;99.90;;;;;;4969558;28;20046;-73
2023/01/27 01:46:49;;;;;;;28.13;4.68;;;4.90;99.90;;;;;;4971640;28;20482;-73
2023/01/27 01:49:17;;;;;;;14.07;4.10;;;4.90;99.90;;;;;;4970788;28;20126;-73
2023/01/27 01:51:47;;;;;;;3.03;2.78;;;4.90;99.90;;;;;;5002156;28;20635;-73
2023/01/27 01:54:26;;;;;;;6.57;3.92;;;4.80;99.90;;;;;;4971018;28;20050;-73
2023/01/27 01:57:02;;;;;;;5.22;3.08;;;4.80;99.90;;;;;;4970924;28;20050;-74
2023/01/27 01:59:59;;;;;;;10.45;3.90;;;4.80;99.90;;;;;;4969856;28;20053;-74
2023/01/27 02:02:26;;;;;;;3.03;2.60;;;4.80;99.90;;;;;;4965714;28;20097;-73
2023/01/27 02:05:08;;;;;;;5.65;3.53;;;4.80;99.90;;;;;;4970908;28;20617;-74
2023/01/27 02:07:56;;;;;;;5.60;2.65;;;4.80;99.90;;;;;;4970304;28;20047;-74
2023/01/27 02:10:22;;;;;;;5.85;2.70;;;4.70;99.90;;;;;;4950999;28;20455;-74
2023/01/27 02:12:47;;;;;;;6.43;3.20;;;4.70;99.90;;;;;;4981971;28;20051;-73
2023/01/27 02:15:14;;;;;;;11.05;4.88;;;4.70;99.90;;;;;;4955685;28;20058;-73
2023/01/27 02:17:40;;;;;;;3.65;2.83;;;4.70;99.90;;;;;;5004804;28;20159;-73
2023/01/27 02:20:32;;;;;;;5.05;3.10;;;4.70;99.90;;;;;;4990026;28;20038;-73
2023/01/27 02:23:02;;;;;;;7.13;2.90;;;4.70;99.90;;;;;;4988458;28;20057;-73
2023/01/27 02:25:33;;;;;;;5.10;2.95;;;4.70;99.90;;;;;;4989739;28;20046;-73
2023/01/27 02:28:00;;;;;;;25.03;2.67;;;4.70;99.90;;;;;;4984791;28;20047;-73
2023/01/27 02:30:26;;;;;;;3.00;2.30;;;4.70;99.90;;;;;;4968630;28;20135;-74
2023/01/27 02:32:51;;;;;;;7.15;3.55;;;4.70;99.90;;;;;;4970277;28;20118;-74
2023/01/27 02:35:24;;;;;;;5.07;2.35;;;4.70;99.90;;;;;;4985601;28;20040;-73
2023/01/27 02:37:50;;;;;;;2.67;1.67;;;4.60;99.90;;;;;;4970200;28;20178;-73
2023/01/27 02:40:17;;;;;;;7.35;2.75;;;4.60;99.90;;;;;;4969290;28;20046;-73
2023/01/27 02:42:43;;;;;;;6.93;1.85;;;4.60;99.90;;;;;;4968919;28;20039;-73
2023/01/27 02:45:09;;;;;;;10.20;2.38;;;4.60;99.90;;;;;;4970014;28;20046;-73
2023/01/27 02:47:34;;;;;;;4.78;2.63;;;4.60;99.90;;;;;;4969827;28;20051;-73
2023/01/27 02:50:00;;;;;;;5.15;2.15;;;4.60;99.90;;;;;;4969958;28;20487;-73
2023/01/27 02:52:26;;;;;;;1.48;1.20;;;4.60;99.90;;;;;;4968343;28;20057;-73
2023/01/27 02:54:51;;;;;;;2.72;1.35;;;4.60;99.90;;;;;;4969635;28;20043;-74
2023/01/27 02:57:17;;;;;;;1.35;0.93;;;4.50;99.90;;;;;;4969252;28;20415;-73
2023/01/27 02:59:42;;;;;;;3.00;1.65;;;4.60;99.90;;;;;;4969451;28;20519;-74
2023/01/27 03:02:11;;;;;;;6.07;1.23;;;4.60;99.90;;;;;;4969738;28;20046;-73
2023/01/27 03:04:37;;;;;;;4.40;2.10;;;4.60;99.90;;;;;;4969463;28;20047;-73
2023/01/27 03:07:03;;;;;;;13.70;2.08;;;4.60;99.90;;;;;;4969483;28;20077;-73
2023/01/27 03:09:29;;;;;;;4.43;1.98;;;4.50;99.90;;;;;;4969414;28;20045;-73
2023/01/27 03:20:07;;;;;;;5.55;1.55;;;4.60;99.90;;;;;;4950374;28;20114;-73
2023/01/27 03:22:33;;;;;;;3.10;1.88;;;4.60;99.90;;;;;;4949751;28;20043;-73
2023/01/27 03:24:58;;;;;;;1.40;1.30;;;4.60;99.90;;;;;;4968456;28;20065;-73
2023/01/27 03:27:24;;;;;;;2.35;1.05;;;4.60;99.90;;;;;;4968198;28;20074;-73
2023/01/27 03:29:56;;;;;;;3.67;1.83;;;4.50;99.90;;;;;;4969674;28;20039;-73
2023/01/27 03:32:27;;;;;;;2.80;1.05;;;4.60;99.90;;;;;;4968087;28;20062;-73
2023/01/27 03:34:56;;;;;;;1.75;1.27;;;4.50;99.90;;;;;;4969048;28;20521;-73
2023/01/27 03:48:23;;;;;;;4.95;1.80;;;4.50;99.90;;;;;;4980726;28;20448;-74
2023/01/27 03:50:54;;;;;;;5.35;1.63;;;4.50;99.90;;;;;;4949082;29;20047;-73
2023/01/27 03:53:20;;;;;;;1.95;1.52;;;4.50;99.90;;;;;;4955180;28;20038;-73
2023/01/27 03:55:46;;;;;;;1.40;1.17;;;4.40;99.90;;;;;;4969158;28;20046;-73
2023/01/27 03:58:24;;;;;;;9.98;1.77;;;4.50;99.90;;;;;;4968114;28;20126;-73
2023/01/27 04:00:52;;;;;;;1.40;1.00;;;4.40;99.90;;;;;;4967982;28;20102;-73
2023/01/27 04:08:54;;;;;;;6.85;1.08;;;4.30;99.90;;;;;;4967157;28;20469;-73
2023/01/27 04:14:05;;;;;;;0.90;0.68;;;4.30;99.90;;;;;;4966266;28;20116;-73
2023/01/27 04:16:31;;;;;;;5.43;1.23;;;4.20;99.90;;;;;;4980838;28;20053;-73
2023/01/27 04:18:57;;;;;;;4.15;1.80;;;4.20;99.90;;;;;;4977522;28;20087;-73
2023/01/27 04:21:24;;;;;;;1.85;1.38;;;4.20;99.90;;;;;;4968329;28;20125;-74
2023/01/27 04:23:51;;;;;;;2.53;1.30;;;4.20;99.90;;;;;;4968777;28;20042;-73
2023/01/27 04:26:16;;;;;;;3.38;1.08;;;4.20;99.90;;;;;;4968983;28;20038;-73
2023/01/27 04:28:42;;;;;;;2.65;1.15;;;4.10;99.90;;;;;;4982631;28;20138;-73
2023/01/27 04:31:08;;;;;;;2.50;1.88;;;4.10;99.90;;;;;;4968351;28;20050;-73
2023/01/27 04:33:33;;;;;;;8.80;2.55;;;4.10;99.90;;;;;;4968143;28;20043;-73
2023/01/27 04:35:59;;;;;;;3.35;1.38;;;4.00;99.90;;;;;;4968483;28;20047;-73
2023/01/27 04:38:25;;;;;;;4.03;1.75;;;4.00;99.90;;;;;;4968204;28;20042;-74
2023/01/27 04:40:50;;;;;;;1.20;0.88;;;4.00;99.90;;;;;;4968213;28;20039;-74
2023/01/27 04:43:16;;;;;;;1.65;1.40;;;4.00;99.90;;;;;;4968008;28;20049;-73
2023/01/27 04:45:42;;;;;;;2.03;1.40;;;4.00;99.90;;;;;;4968156;28;20049;-73
2023/01/27 04:48:07;;;;;;;6.28;2.15;;;4.00;99.90;;;;;;4968301;28;20070;-73
2023/01/27 04:50:33;;;;;;;1.23;1.13;;;4.00;99.90;;;;;;4967869;28;20042;-73
2023/01/27 04:52:59;;;;;;;8.20;2.65;;;4.00;99.90;;;;;;4968238;28;20051;-73
2023/01/27 04:55:24;;;;;;;1.17;1.08;;;4.00;99.90;;;;;;4966791;28;20446;-73
2023/01/27 04:57:50;;;;;;;2.60;1.48;;;4.00;99.90;;;;;;4967705;28;20519;-73
2023/01/27 05:00:16;;;;;;;1.20;1.10;;;4.00;99.90;;;;;;4968702;28;20043;-73
2023/01/27 05:02:42;;;;;;;1.25;1.15;;;4.00;99.90;;;;;;4968006;28;20078;-73
2023/01/27 05:05:08;;;;;;;1.45;1.15;;;4.00;99.90;;;;;;4968003;28;20101;-73
2023/01/27 05:07:34;;;;;;;1.80;1.70;;;4.00;99.90;;;;;;4999275;28;20043;-73
2023/01/27 05:09:59;;;;;;;3.45;2.00;;;4.00;99.90;;;;;;4967792;28;20046;-74
2023/01/27 05:12:25;;;;;;;1.67;1.58;;;3.90;99.90;;;;;;4998495;28;20051;-73
2023/01/27 05:14:50;;;;;;;1.48;1.38;;;3.90;99.90;;;;;;4967787;28;20164;-74
2023/01/27 05:17:16;;;;;;;1.95;1.40;;;3.80;99.90;;;;;;4987024;28;20049;-73
2023/01/27 05:19:42;;;;;;;2.90;1.40;;;3.80;99.90;;;;;;5004612;28;20482;-73
2023/01/27 05:22:09;;;;;;;10.90;1.73;;;3.80;99.90;;;;;;4989883;28;20044;-73
2023/01/27 05:24:37;;;;;;;2.33;1.80;;;3.80;99.90;;;;;;4989472;28;20177;-73
2023/01/27 05:27:03;;;;;;;3.28;1.67;;;3.70;99.90;;;;;;4990388;28;20105;-73
2023/01/27 05:29:29;;;;;;;4.97;1.42;;;3.70;99.90;;;;;;4972878;28;20042;-73
2023/01/27 05:31:54;;;;;;;6.70;2.28;;;3.70;99.90;;;;;;4986363;28;20049;-74
2023/01/27 05:34:20;;;;;;;3.95;3.65;;;3.70;99.90;;;;;;4971731;28;20138;-73
2023/01/27 05:36:45;;;;;;;3.88;3.20;;;3.70;99.90;;;;;;4971616;28;20051;-73
2023/01/27 05:39:11;;;;;;;4.22;2.00;;;3.60;99.90;;;;;;5002798;28;20051;-73
2023/01/27 05:41:37;;;;;;;4.80;1.90;;;3.60;99.90;;;;;;4969570;28;20046;-73
2023/01/27 05:44:03;;;;;;;4.18;1.52;;;3.60;99.90;;;;;;4970979;28;20073;-73
2023/01/27 05:46:30;;;;;;;2.08;1.88;;;3.50;99.90;;;;;;4986644;28;20141;-74
2023/01/27 05:49:01;;;;;;;3.42;1.80;;;3.50;99.90;;;;;;4990703;28;20086;-73
2023/01/27 05:51:30;;;;;;;2.45;1.75;;;3.50;99.90;;;;;;4989859;28;20046;-74
2023/01/27 05:53:55;;;;;;;3.00;2.07;;;3.50;99.90;;;;;;4988990;28;20097;-74
2023/01/27 05:56:22;;;;;;;6.40;2.95;;;3.50;99.90;;;;;;4990334;28;20042;-75
2023/01/27 05:58:48;;;;;;;6.45;2.35;;;3.50;99.90;;;;;;4988500;28;20137;-74
2023/01/27 06:01:13;;;;;;;1.88;1.75;;;3.50;99.90;;;;;;4983058;28;20129;-74
2023/01/27 06:03:40;;;;;;;2.30;1.25;;;3.60;99.90;;;;;;4970612;28;20487;-74
2023/01/27 06:06:06;;;;;;;3.83;2.25;;;3.60;99.90;;;;;;4969626;28;20126;-74
2023/01/27 06:08:32;;;;;;;1.10;1.10;;;3.60;99.90;;;;;;4970609;28;20042;-74
2023/01/27 06:10:59;;;;;;;2.35;1.55;;;3.60;99.90;;;;;;4972128;28;20050;-74
2023/01/27 06:13:25;;;;;;;9.20;2.42;;;3.60;99.90;;;;;;4970594;28;20420;-74
2023/01/27 06:15:51;;;;;;;3.15;2.28;;;3.60;99.90;;;;;;4971102;28;20039;-76
2023/01/27 06:18:18;;;;;;;1.73;1.17;;;3.60;99.90;;;;;;4970775;28;20046;-74
2023/01/27 06:20:44;;;;;;;2.05;1.63;;;3.60;99.90;;;;;;4970164;28;20403;-74
2023/01/27 06:23:12;;;;;;;4.18;1.90;;;3.60;99.90;;;;;;4970711;28;20568;-74
2023/01/27 06:25:39;;;;;;;3.17;1.83;;;3.70;99.90;;;;;;4969341;28;20050;-74
2023/01/27 06:28:05;;;;;;;1.70;1.50;;;3.70;99.90;;;;;;4969805;28;20054;-74
2023/01/27 06:30:35;;;;;;;1.00;1.00;;;3.60;99.90;;;;;;4968855;28;20053;-76
2023/01/27 06:33:02;;;;;;;1.15;0.95;;;3.70;99.90;;;;;;4970338;28;20125;-76
2023/01/27 06:35:29;;;;;;;2.70;1.55;;;3.70;99.90;;;;;;4972453;28;20126;-75
2023/01/27 06:37:56;;;;;;;2.00;1.67;;;3.70;99.90;;;;;;4971724;28;20102;-76
2023/01/27 06:40:22;;;;;;;0.82;0.80;;;3.70;99.90;;;;;;4979267;28;20030;-78
2023/01/27 06:42:47;;;;;;;10.02;1.83;;;3.70;99.90;;;;;;4969778;28;20039;-75
2023/01/27 06:45:13;;;;;;;1.52;1.40;;;3.70;99.90;;;;;;4969589;28;20042;-78
2023/01/27 06:47:39;;;;;;;1.38;1.20;;;3.70;99.90;;;;;;4969070;28;20047;-77
2023/01/27 06:50:06;;;;;;;2.42;1.60;;;3.80;99.90;;;;;;4968125;28;20045;-78
2023/01/27 06:52:32;;;;;;;2.20;1.60;;;3.80;99.90;;;;;;4968590;28;20051;-79
2023/01/27 06:54:57;;;;;;;3.10;2.05;;;3.80;99.90;;;;;;4969706;28;20054;-80
2023/01/27 06:57:23;;;;;;;2.78;1.67;;;3.80;99.90;;;;;;4967448;28;20085;-78
2023/01/27 06:59:49;;;;;;;1.63;0.98;;;3.80;99.90;;;;;;4976586;28;20418;-77
2023/01/27 07:02:14;;;;;;;2.72;1.63;;;3.80;99.90;;;;;;4968852;28;20162;-78
2023/01/27 07:04:40;;;;;;;2.22;1.63;;;3.80;99.90;;;;;;4969120;28;20170;-76
2023/01/27 07:07:05;;;;;;;2.20;1.40;;;3.80;99.90;;;;;;4967083;28;20085;-75
2023/01/27 07:09:31;;;;;;;1.67;0.95;;;3.80;99.90;;;;;;4969153;28;20042;-77
2023/01/27 07:11:57;;;;;;;1.90;1.63;;;3.80;99.90;;;;;;4982459;28;20054;-75
2023/01/27 07:14:22;;;;;;;5.55;1.42;;;3.80;99.90;;;;;;4968881;28;20051;-77
2023/01/27 07:16:48;;;;;;;2.65;1.42;;;3.90;99.90;;;;;;4981214;28;20540;-77
2023/01/27 07:19:15;;;;;;;1.50;1.48;;;3.80;99.90;;;;;;4981711;28;20135;-77
2023/01/27 07:21:41;;;;;;;1.48;0.75;;;3.80;99.90;;;;;;4968209;28;20054;-77
2023/01/27 07:24:07;;;;;;;2.80;0.88;;;3.80;99.90;;;;;;4969031;28;20418;-76
2023/01/27 07:26:33;;;;;;;2.70;1.55;;;3.80;99.90;;;;;;4958016;28;20055;-79
2023/01/27 07:28:58;;;;;;;3.42;1.80;;;3.80;99.90;;;;;;4948125;28;20047;-79
2023/01/27 07:31:24;;;;;;;3.75;1.75;;;3.80;99.90;;;;;;4969201;28;20050;-77
2023/01/27 07:33:51;;;;;;;2.75;1.42;;;3.80;99.90;;;;;;4974231;28;20035;-77
2023/01/27 07:36:16;;;;;;;1.00;0.90;;;3.80;99.90;;;;;;4967891;28;20105;-77
2023/01/27 07:38:42;;;;;;;1.55;1.17;;;3.80;99.90;;;;;;4968605;28;20491;-77
2023/01/27 07:41:07;;;;;;;2.72;1.52;;;3.80;99.90;;;;;;4968677;28;20042;-77
2023/01/27 07:43:33;;;;;;;3.10;1.52;;;3.80;99.90;;;;;;4967914;28;20046;-77
2023/01/27 07:45:59;;;;;;;1.25;1.10;;;3.90;99.90;;;;;;4972801;28;20035;-77
2023/01/27 07:48:25;;;;;;;1.60;1.48;;;3.90;99.90;;;;;;4970691;28;20058;-77
2023/01/27 07:50:50;;;;;;;5.60;1.38;;;3.80;99.90;;;;;;4972064;28;20039;-77
2023/01/27 07:53:16;;;;;;;1.48;1.38;;;3.90;99.90;;;;;;4969073;28;20050;-77
2023/01/27 07:55:42;;;;;;;2.72;1.67;;;3.80;99.90;;;;;;4967143;28;20402;-76
2023/01/27 07:58:08;;;;;;;3.72;1.58;;;3.90;99.90;;;;;;4967586;28;20506;-76
2023/01/27 08:00:34;;;;;;;2.22;1.30;;;3.90;99.90;;;;;;4967988;28;20231;-76
2023/01/27 08:03:00;;;;;;;4.43;1.45;;;3.90;99.90;;;;;;4974680;28;20042;-76
2023/01/27 08:05:28;;;;;;;2.05;1.52;;;3.90;99.90;;;;;;4987863;28;20478;-76
2023/01/27 08:07:54;;;;;;;1.65;1.42;;;3.90;99.90;;;;;;4970416;28;20065;-76
2023/01/27 08:10:20;;;;;;;2.35;1.38;;;3.90;99.90;;;;;;4969051;28;20051;-76
2023/01/27 08:12:46;;;;;;;6.28;3.22;;;3.90;99.90;;;;;;4967879;28;20487;-76
2023/01/27 08:15:13;;;;;;;1.27;0.98;;;3.90;99.90;;;;;;4969716;28;20122;-76
2023/01/27 08:17:38;;;;;;;1.23;1.23;;;3.90;99.90;;;;;;4980310;28;20578;-76
2023/01/27 08:20:04;;;;;;;4.68;1.98;;;3.90;99.90;;;;;;4968560;28;20126;-76
2023/01/27 08:22:30;;;;;;;1.88;1.40;;;3.90;99.90;;;;;;4998521;28;20069;-77
2023/01/27 08:24:56;;;;;;;6.25;1.75;;;4.00;99.90;;;;;;4968539;28;20047;-77
2023/01/27 08:27:22;;;;;;;1.77;1.67;;;4.00;99.90;;;;;;4997996;28;20049;-78
2023/01/27 08:29:47;;;;;;;2.17;1.90;;;4.00;99.90;;;;;;4968618;28;20486;-77
2023/01/27 08:32:13;;;;;;;1.73;1.20;;;4.00;99.90;;;;;;4975437;28;20035;-77
2023/01/27 08:34:39;;;;;;;2.08;1.08;;;4.00;99.90;;;;;;4986385;28;20039;-77
2023/01/27 08:37:05;;;;;;;1.42;1.33;;;4.00;99.90;;;;;;4978444;28;20055;-77
2023/01/27 08:39:32;;;;;;;1.27;1.20;;;4.00;99.90;;;;;;4968130;28;20431;-77
2023/01/27 08:41:57;;;;;;;1.38;0.85;;;4.00;99.90;;;;;;4967288;28;20593;-77
2023/01/27 08:44:23;;;;;;;1.38;1.27;;;4.00;99.90;;;;;;4967587;28;20030;-78
2023/01/27 08:46:49;;;;;;;1.60;0.80;;;4.00;99.90;;;;;;4968226;28;20122;-77
2023/01/27 08:49:15;;;;;;;1.55;1.45;;;4.00;99.90;;;;;;4967723;28;20038;-76
2023/01/27 08:51:41;;;;;;;1.67;0.80;;;4.10;99.90;;;;;;4968161;28;20612;-73
2023/01/27 08:54:07;;;;;;;2.40;1.17;;;4.10;99.90;;;;;;4975794;28;20042;-74
2023/01/27 08:56:33;;;;;;;1.80;0.77;;;4.10;99.90;;;;;;4986775;28;20050;-73
2023/01/27 08:58:59;;;;;;;0.93;0.73;;;4.10;99.90;;;;;;4971596;28;20054;-73
2023/01/27 09:01:24;;;;;;;1.35;1.10;;;4.10;99.90;;;;;;4971654;28;20043;-74
2023/01/27 09:03:50;;;;;;;0.93;0.90;;;4.10;99.90;;;;;;4972138;28;20082;-76
2023/01/27 09:06:17;;;;;;;2.55;2.13;;;4.10;99.90;;;;;;4976256;28;20464;-76
2023/01/27 09:08:43;;;;;;;0.82;0.65;;;4.10;99.90;;;;;;4969879;28;20126;-77
2023/01/27 09:11:14;;;;;;;1.80;0.95;;;4.20;99.90;;;;;;4981774;28;20050;-76
2023/01/27 09:13:40;;;;;;;0.80;0.80;;;4.20;99.90;;;;;;4989203;28;20046;-76
2023/01/27 09:16:06;;;;;;;1.20;1.05;;;4.20;99.90;;;;;;4990344;28;20050;-76
2023/01/27 09:18:33;;;;;;;1.10;1.00;;;4.20;99.90;;;;;;4989446;28;20042;-76
2023/01/27 09:21:05;;;;;;;2.78;0.93;;;4.20;99.90;;;;;;4988837;28;20097;-76
2023/01/27 09:23:32;;;;;;;9.80;1.77;;;4.20;99.90;;;;;;4989619;28;20555;-76
2023/01/27 09:25:57;;;;;;;1.85;1.67;;;4.20;99.90;;;;;;4988577;28;20042;-76
2023/01/27 09:28:23;;;;;;;2.08;1.15;;;4.20;99.90;;;;;;4989122;28;20046;-77
2023/01/27 09:30:48;;;;;;;1.05;0.95;;;4.20;99.90;;;;;;4990408;28;20061;-75
2023/01/27 09:33:14;;;;;;;1.13;0.90;;;4.30;99.90;;;;;;4988222;28;20086;-76
2023/01/27 09:35:48;;;;;;;1.38;0.95;;;4.30;99.90;;;;;;4989748;28;20473;-76
2023/01/27 09:38:19;;;;;;;0.57;0.57;;;4.30;99.90;;;;;;5004895;28;20057;-76
2023/01/27 09:41:18;;;;;;;2.45;1.55;;;4.30;99.90;;;;;;4989204;28;20048;-76
2023/01/27 09:44:10;;;;;;;1.00;0.88;;;4.30;99.90;;;;;;4989506;28;20413;-76
2023/01/27 09:46:44;;;;;;;2.17;0.90;;;4.40;99.90;;;;;;4989127;28;20042;-76
2023/01/27 09:49:10;;;;;;;1.38;1.00;;;4.40;99.90;;;;;;4988021;28;20046;-76
2023/01/27 09:51:53;;;;;;;0.93;0.90;;;4.40;99.90;;;;;;4989209;28;20046;-76
2023/01/27 09:54:31;;;;;;;0.85;0.85;;;4.40;99.90;;;;;;4989936;28;20422;-76
2023/01/27 09:57:21;;;;;;;0.85;0.75;;;4.40;99.90;;;;;;4988456;28;20046;-76
2023/01/27 10:00:08;;;;;;;2.65;1.25;;;4.50;99.90;;;;;;4989801;28;20414;-76
2023/01/27 10:03:14;;;;;;;1.48;0.55;;;4.50;99.90;;;;;;4989013;28;20054;-76
2023/01/27 10:06:04;;;;;;;2.33;1.30;;;4.50;99.90;;;;;;4988821;28;20122;-76
2023/01/27 10:08:41;;;;;;;2.83;1.13;;;4.50;99.90;;;;;;4987497;28;20490;-76
2023/01/27 10:11:28;;;;;;;2.15;1.25;;;4.60;99.90;;;;;;4988127;28;20557;-76
2023/01/27 10:14:16;;;;;;;1.95;1.15;;;4.60;99.90;;;;;;4987758;28;20058;-77
2023/01/27 10:16:55;;;;;;;1.15;0.70;;;4.50;99.90;;;;;;4974658;28;20046;-76
2023/01/27 10:19:53;;;;;;;0.70;0.70;;;4.50;99.90;;;;;;4969103;28;20046;-77
2023/01/27 10:22:44;;;;;;;1.05;0.70;;;4.60;99.90;;;;;;4968742;28;20126;-76
2023/01/27 10:25:35;;;;;;;0.55;0.47;;;4.60;99.90;;;;;;4984543;28;20047;-76
2023/01/27 10:28:19;;;;;;;0.50;0.50;;;4.60;99.90;;;;;;4967295;28;20047;-76
2023/01/27 10:31:04;;;;;;;2.05;1.27;;;4.60;99.90;;;;;;4969343;28;20038;-76
2023/01/27 10:33:52;;;;;;;0.98;0.40;;;4.60;99.90;;;;;;4969121;28;20070;-76
2023/01/27 10:36:35;;;;;;;2.42;0.82;;;4.60;99.90;;;;;;4968412;28;20129;-76
2023/01/27 10:39:08;;;;;;;0.68;0.57;;;4.60;99.90;;;;;;4968937;28;20042;-76
2023/01/27 10:42:05;;;;;;;0.60;0.60;;;4.60;99.90;;;;;;4968205;28;20046;-76
2023/01/27 10:44:58;;;;;;;1.25;0.57;;;4.70;99.90;;;;;;4969811;28;20084;-76
2023/01/27 10:47:33;;;;;;;3.28;1.23;;;4.70;99.90;;;;;;4978427;28;20490;-75
2023/01/27 10:50:10;;;;;;;0.85;0.50;;;4.80;99.90;;;;;;4971777;28;20042;-76
2023/01/27 10:52:45;;;;;;;1.98;1.17;;;4.80;99.90;;;;;;4969060;28;20118;-76
2023/01/27 10:55:24;;;;;;;0.52;0.45;;;4.80;99.90;;;;;;4971722;28;20046;-76
2023/01/27 10:58:01;;;;;;;1.35;1.17;;;4.80;99.90;;;;;;4976093;28;20347;-76
2023/01/27 11:00:40;;;;;;;0.50;0.50;;;4.80;99.90;;;;;;4967209;28;20042;-77
2023/01/27 11:03:13;;;;;;;0.60;0.60;;;4.80;99.90;;;;;;4969543;28;20046;-77
2023/01/27 11:05:44;;;;;;;1.02;0.65;;;4.80;99.90;;;;;;4969415;28;20047;-77
2023/01/27 11:08:21;;;;;;;1.13;0.85;;;4.80;99.90;;;;;;4969618;28;20038;-76
2023/01/27 11:13:39;;;;;;;0.90;0.60;;;4.80;99.90;;;;;;4998705;28;20062;-77
2023/01/27 11:16:14;;;;;;;3.75;2.10;;;4.80;99.90;;;;;;4971785;28;20446;-77
2023/01/27 11:18:42;;;;;;;8.18;1.58;;;4.80;99.90;;;;;;4968902;28;20043;-76
2023/01/27 11:21:21;;;;;;;3.17;1.35;;;4.80;99.90;;;;;;4968862;28;20097;-77
2023/01/27 11:23:54;;;;;;;3.08;1.25;;;4.80;99.90;;;;;;4983982;28;20054;-77
2023/01/27 11:26:26;;;;;;;1.23;1.13;;;4.80;99.90;;;;;;4969412;28;20043;-77
2023/01/27 11:29:22;;;;;;;1.95;1.13;;;4.80;99.90;;;;;;4969070;28;20138;-77
2023/01/27 11:32:02;;;;;;;1.55;1.13;;;4.80;99.90;;;;;;4968495;28;20148;-77
2023/01/27 11:35:00;;;;;;;2.05;1.58;;;4.80;99.90;;;;;;4967411;28;20125;-77
2023/01/27 11:37:38;;;;;;;0.88;0.82;;;4.80;99.90;;;;;;4961830;28;20097;-77
2023/01/27 11:40:14;;;;;;;2.10;1.33;;;4.80;99.90;;;;;;4969268;28;20057;-76
2023/01/27 11:42:40;;;;;;;1.00;0.77;;;4.90;99.90;;;;;;4967044;28;20045;-77
2023/01/27 11:45:11;;;;;;;1.70;0.40;;;4.90;99.90;;;;;;4968896;28;20419;-77
2023/01/27 11:47:40;;;;;;;0.40;0.40;;;4.90;99.90;;;;;;4968410;28;20047;-77
2023/01/27 11:50:11;;;;;;;1.42;0.82;;;4.90;99.90;;;;;;4970129;28;20049;-77
2023/01/27 11:52:37;;;;;;;1.92;1.33;;;4.90;99.90;;;;;;4979902;28;20046;-76
2023/01/27 11:55:13;;;;;;;1.05;0.73;;;4.90;99.90;;;;;;4967156;28;20912;-75
2023/01/27 11:57:45;;;;;;;0.68;0.68;;;4.90;99.90;;;;;;4963975;28;20090;-76
2023/01/27 12:00:18;;;;;;;14.63;1.30;;;4.90;99.90;;;;;;4964088;28;20587;-78
2023/01/27 12:02:53;;;;;;;2.85;1.08;;;4.90;99.90;;;;;;4967484;28;20045;-77
2023/01/27 12:05:28;;;;;;;0.70;0.70;;;5.00;99.90;;;;;;4968152;28;20085;-75
2023/01/27 12:08:02;;;;;;;0.70;0.70;;;5.00;99.90;;;;;;4966870;28;20431;-77
2023/01/27 12:10:31;;;;;;;2.53;1.23;;;5.10;99.90;;;;;;4966576;28;20051;-77
2023/01/27 12:13:07;;;;;;;0.80;0.80;;;5.10;99.90;;;;;;4967390;28;20043;-78
2023/01/27 12:15:35;;;;;;;0.63;0.63;;;5.10;99.90;;;;;;4975868;28;20054;-79
2023/01/27 12:18:12;;;;;;;0.30;0.30;;;5.10;99.90;;;;;;4967932;28;20092;-80
2023/01/27 12:20:44;;;;;;;0.50;0.50;;;5.10;99.90;;;;;;4967712;28;20039;-76
2023/01/27 12:23:17;;;;;;;8.93;0.85;;;5.10;99.90;;;;;;4967858;28;20173;-78
2023/01/27 12:25:46;;;;;;;0.52;0.40;;;5.10;99.90;;;;;;4967102;28;20042;-78
2023/01/27 12:28:33;;;;;;;1.20;1.08;;;5.00;99.90;;;;;;4968000;28;20050;-76
2023/01/27 12:31:19;;;;;;;0.68;0.40;;;5.00;99.90;;;;;;4972597;28;20074;-78
2023/01/27 12:33:57;;;;;;;1.15;0.40;;;5.00;99.90;;;;;;4974827;28;20438;-75
2023/01/27 12:36:23;;;;;;;2.05;1.00;;;5.00;99.90;;;;;;4973645;28;20051;-73
2023/01/27 12:38:52;;;;;;;0.77;0.50;;;5.00;99.90;;;;;;4972357;28;20042;-75
2023/01/27 12:41:27;;;;;;;1.23;1.13;;;5.00;99.90;;;;;;5002955;28;20047;-75
2023/01/27 12:44:14;;;;;;;0.68;0.68;;;5.00;99.90;;;;;;5002735;28;20055;-76
2023/01/27 12:46:55;;;;;;;0.77;0.77;;;5.10;99.90;;;;;;4971316;28;20050;-76
2023/01/27 12:49:21;;;;;;;4.90;0.50;;;5.10;99.90;;;;;;4974900;28;20402;-75
2023/01/27 12:51:53;;;;;;;2.13;1.60;;;5.10;99.90;;;;;;4971835;28;20454;-74
2023/01/27 12:54:30;;;;;;;0.70;0.70;;;5.10;99.90;;;;;;5002403;28;20090;-74
2023/01/27 12:57:03;;;;;;;0.60;0.60;;;5.10;99.90;;;;;;4970519;28;20070;-74
2023/01/27 12:59:29;;;;;;;1.52;0.65;;;5.10;99.90;;;;;;4971168;28;20042;-75
2023/01/27 13:01:57;;;;;;;2.35;0.88;;;5.10;99.90;;;;;;4970492;28;20081;-75
2023/01/27 13:04:25;;;;;;;0.93;0.80;;;5.10;99.90;;;;;;4969745;28;20509;-74
2023/01/27 13:06:56;;;;;;;0.43;0.40;;;5.10;99.90;;;;;;4971083;28;20046;-76
2023/01/27 13:09:29;;;;;;;1.25;0.95;;;5.00;99.90;;;;;;4970703;28;20519;-75
2023/01/27 13:11:58;;;;;;;2.75;1.17;;;5.00;99.90;;;;;;4968898;28;20047;-74
2023/01/27 13:14:28;;;;;;;0.80;0.80;;;5.00;99.90;;;;;;4966830;28;20066;-75
2023/01/27 13:16:57;;;;;;;0.85;0.85;;;5.00;99.90;;;;;;4974934;28;20051;-75
2023/01/27 13:19:39;;;;;;;1.88;1.10;;;5.00;99.90;;;;;;4970501;28;20491;-75
2023/01/27 13:22:08;;;;;;;1.00;0.60;;;5.00;99.90;;;;;;4970483;28;20169;-75
2023/01/27 13:24:39;;;;;;;1.23;1.10;;;5.00;99.90;;;;;;4970340;28;20043;-75
2023/01/27 13:27:12;;;;;;;0.90;0.47;;;4.90;99.90;;;;;;4969152;28;20402;-74
2023/01/27 13:29:41;;;;;;;0.50;0.50;;;5.00;99.90;;;;;;4973810;28;20445;-74
2023/01/27 13:32:19;;;;;;;0.45;0.45;;;5.00;99.90;;;;;;4975293;28;20403;-74
2023/01/27 13:35:14;;;;;;;0.75;0.65;;;4.90;99.90;;;;;;4981532;28;20102;-74
2023/01/27 13:37:47;;;;;;;0.60;0.60;;;5.00;99.90;;;;;;4969243;28;20050;-74
2023/01/27 13:40:51;;;;;;;0.90;0.90;;;4.90;99.90;;;;;;4970271;28;20051;-73
2023/01/27 13:43:23;;;;;;;0.60;0.60;;;4.90;99.90;;;;;;4933517;29;20562;-74
2023/01/27 13:46:13;;;;;;;0.30;0.30;;;5.00;99.90;;;;;;4917603;29;20081;-76
2023/01/27 13:48:47;;;;;;;1.33;1.08;;;4.90;99.90;;;;;;4973650;28;20050;-74
2023/01/27 13:51:19;;;;;;;3.03;0.85;;;5.00;99.90;;;;;;4985576;28;20121;-74